Time;durP1;ratioP1;P1;durP2;ratioP2;P2;SDS_P1;SDS_P2;PMS_P1;PMS_P2;Temp;Humidity;BMP_temperature;BMP_pressure;BME280_temperature;BME280_humidity;BME280_pressure;Samples;Min_cycle;Max_cycle;Signal;HPM_P1;HPM_P2
2024/04/10 00:00:31;;;;;;;15.00;5.70;;;;;;;10.84;66.94;96958.66;105030;1268;99256;-74
2024/04/10 00:03:18;;;;;;;10.30;5.40;;;;;;;10.82;67.15;96958.25;105019;1253;100627;-73
2024/04/10 00:06:04;;;;;;;13.40;6.30;;;;;;;10.82;67.26;96960.70;104970;1257;99389;-74
2024/04/10 00:08:33;;;;;;;9.90;5.60;;;;;;;10.78;67.27;96961.02;104921;1259;99251;-74
2024/04/10 00:11:01;;;;;;;13.00;6.20;;;;;;;10.76;67.35;96958.84;105089;1254;99728;-74
2024/04/10 00:13:31;;;;;;;13.40;5.50;;;;;;;10.72;67.27;96958.98;105028;1257;104938;-74
2024/04/10 00:16:00;;;;;;;10.40;5.80;;;;;;;10.67;67.37;96955.83;105058;1256;100482;-74
2024/04/10 00:18:29;;;;;;;9.10;5.00;;;;;;;10.65;67.52;96953.64;104994;1270;100572;-74
2024/04/10 00:20:58;;;;;;;10.80;5.10;;;;;;;10.62;67.61;96952.90;105061;1257;99253;-74
2024/04/10 00:23:25;;;;;;;14.30;5.40;;;;;;;10.54;67.90;96951.80;105049;1257;100632;-74
2024/04/10 00:25:59;;;;;;;12.90;5.70;;;;;;;10.44;67.92;96954.59;105003;1257;104842;-74
2024/04/10 00:28:32;;;;;;;8.00;6.00;;;;;;;10.37;68.12;96952.84;105030;1266;101265;-74
2024/04/10 00:31:05;;;;;;;10.10;6.40;;;;;;;10.38;68.27;96952.71;104995;1256;99196;-74
2024/04/10 00:33:32;;;;;;;11.30;6.00;;;;;;;10.40;68.32;96956.33;104997;1275;99228;-74
2024/04/10 00:36:03;;;;;;;14.10;6.20;;;;;;;10.40;68.36;96958.10;105035;1256;99827;-74
2024/04/10 00:38:32;;;;;;;14.20;6.00;;;;;;;10.39;68.33;96957.00;105040;1267;105207;-74
2024/04/10 00:41:03;;;;;;;11.00;5.40;;;;;;;10.37;68.32;96958.60;105079;1254;101525;-78
2024/04/10 00:43:31;;;;;;;11.10;5.30;;;;;;;10.33;68.27;96959.59;104677;1262;99305;-78
2024/04/10 00:46:08;;;;;;;13.50;5.20;;;;;;;10.31;68.47;96954.79;105097;1254;99269;-79
2024/04/10 00:48:40;;;;;;;11.00;4.30;;;;;;;10.30;68.64;96957.08;104990;1267;99180;-80
2024/04/10 00:51:13;;;;;;;8.80;4.80;;;;;;;10.28;68.72;96959.91;105002;1254;104199;-80
2024/04/10 00:53:41;;;;;;;9.60;5.60;;;;;;;10.27;68.81;96960.63;105070;1257;101373;-79
2024/04/10 00:56:10;;;;;;;19.10;5.80;;;;;;;10.24;68.87;96960.00;105096;1266;99264;-78
2024/04/10 00:58:39;;;;;;;11.90;5.60;;;;;;;10.23;69.03;96963.05;105043;1267;99333;-78
2024/04/10 01:01:08;;;;;;;11.20;4.90;;;;;;;10.23;68.95;96968.18;105104;1256;100904;-79
2024/04/10 01:03:38;;;;;;;11.50;5.50;;;;;;;10.21;69.08;96964.01;105096;1257;104142;-80
2024/04/10 01:06:10;;;;;;;13.50;6.60;;;;;;;10.16;69.21;96960.86;105052;1267;101363;-80
2024/04/10 01:08:39;;;;;;;14.20;6.40;;;;;;;10.13;69.20;96961.35;104995;1270;99308;-79
2024/04/10 01:11:08;;;;;;;12.60;5.40;;;;;;;10.11;69.38;96964.18;105004;1266;99281;-79
2024/04/10 01:13:36;;;;;;;9.40;5.20;;;;;;;10.09;69.55;96963.86;105103;1256;99921;-79
2024/04/10 01:16:05;;;;;;;11.00;5.50;;;;;;;10.07;69.47;96969.02;105006;1256;104805;-80
2024/04/10 01:18:32;;;;;;;9.20;5.00;;;;;;;10.06;69.68;96969.92;105105;1257;101500;-79
2024/04/10 01:21:00;;;;;;;7.00;4.70;;;;;;;10.06;69.73;96967.73;104920;1267;99240;-79
2024/04/10 01:23:27;;;;;;;11.70;5.30;;;;;;;10.04;69.64;96974.25;105031;1256;99325;-79
2024/04/10 01:25:55;;;;;;;11.70;5.60;;;;;;;10.02;69.82;96973.11;105082;1266;100492;-79
2024/04/10 01:28:22;;;;;;;7.10;4.70;;;;;;;10.02;69.87;96971.76;105021;1257;99298;-79
2024/04/10 01:30:50;;;;;;;9.70;5.40;;;;;;;10.00;69.92;96967.05;105129;1266;100369;-79
2024/04/10 01:33:18;;;;;;;12.70;5.10;;;;;;;9.99;69.92;96973.80;104962;1266;99604;-79
2024/04/10 01:35:46;;;;;;;9.40;5.50;;;;;;;9.99;70.07;96980.11;104992;1266;99340;-79
2024/04/10 01:38:14;;;;;;;10.50;5.20;;;;;;;9.98;70.13;96980.20;105041;1259;99670;-80
2024/04/10 01:40:41;;;;;;;8.80;5.60;;;;;;;9.98;70.03;96980.04;105055;1257;99330;-79
2024/04/10 01:43:08;;;;;;;9.70;5.40;;;;;;;9.96;70.20;96981.08;104936;1268;99254;-79
2024/04/10 01:45:36;;;;;;;11.30;4.90;;;;;;;9.93;70.19;96977.95;104927;1265;99334;-78
2024/04/10 01:48:04;;;;;;;9.80;5.10;;;;;;;9.89;70.29;96973.84;105042;1266;99325;-78
2024/04/10 01:50:32;;;;;;;9.50;5.00;;;;;;;9.88;70.42;96977.38;104998;1257;99689;-78
2024/04/10 01:52:59;;;;;;;10.90;4.80;;;;;;;9.85;70.47;96977.38;105085;1264;104008;-79
2024/04/10 01:55:27;;;;;;;8.50;4.90;;;;;;;9.83;70.55;96978.42;105037;1272;99180;-78
2024/04/10 01:57:54;;;;;;;7.80;5.30;;;;;;;9.81;70.55;96983.00;105028;1267;100606;-77
2024/04/10 02:00:24;;;;;;;11.60;5.50;;;;;;;9.83;70.75;96980.59;105015;1257;99276;-78
2024/04/10 02:02:52;;;;;;;9.70;5.80;;;;;;;9.84;70.85;96980.41;105051;1266;99771;-78
2024/04/10 02:05:20;;;;;;;8.40;5.20;;;;;;;9.84;70.88;96984.98;105089;1266;104046;-77
2024/04/10 02:07:48;;;;;;;11.00;6.10;;;;;;;9.83;70.85;96995.02;105041;1267;101231;-78
2024/04/10 02:10:15;;;;;;;12.10;4.70;;;;;;;9.83;70.83;97033.25;105014;1254;99365;-78
2024/04/10 02:12:43;;;;;;;12.10;4.60;;;;;;;9.81;70.89;97032.68;105059;1255;99260;-78
2024/04/10 02:15:10;;;;;;;6.30;4.70;;;;;;;9.82;71.06;97029.81;105035;1265;99237;-79
2024/04/10 02:17:38;;;;;;;7.40;4.70;;;;;;;9.82;71.42;97017.79;105092;1257;99161;-78
2024/04/10 02:20:08;;;;;;;10.50;4.70;;;;;;;9.79;71.34;97022.06;105058;1265;99327;-77
2024/04/10 02:22:35;;;;;;;9.80;4.50;;;;;;;9.80;71.41;97021.39;105041;1275;100620;-78
2024/04/10 02:25:04;;;;;;;10.10;5.00;;;;;;;9.81;71.44;97019.65;105120;1258;99391;-78
2024/04/10 02:27:31;;;;;;;10.30;4.40;;;;;;;9.78;71.50;97026.83;105041;1257;99705;-78
2024/04/10 02:29:59;;;;;;;8.00;4.90;;;;;;;9.80;71.50;97042.81;104997;1257;104063;-79
2024/04/10 02:32:26;;;;;;;10.50;4.60;;;;;;;9.85;71.48;97045.73;105058;1255;100447;-74
2024/04/10 02:34:54;;;;;;;12.40;5.30;;;;;;;9.86;71.65;97051.49;105038;1266;99342;-74
2024/04/10 02:37:22;;;;;;;8.00;4.80;;;;;;;9.84;71.69;97062.33;105055;1266;99257;-74
2024/04/10 02:39:50;;;;;;;8.60;4.30;;;;;;;9.82;71.75;97062.48;105043;1256;99195;-74
2024/04/10 02:42:18;;;;;;;9.60;5.20;;;;;;;9.79;71.84;97070.27;105036;1266;104952;-74
2024/04/10 02:44:50;;;;;;;9.70;5.20;;;;;;;9.75;71.88;97073.15;104942;1257;101663;-74
2024/04/10 02:47:19;;;;;;;10.30;4.80;;;;;;;9.68;71.84;97075.33;105069;1258;107669;-74
2024/04/10 02:49:47;;;;;;;9.80;5.40;;;;;;;9.63;71.98;97081.70;105016;1266;99301;-74
2024/04/10 02:52:14;;;;;;;9.30;5.00;;;;;;;9.60;72.03;97084.98;105053;1258;99340;-74
2024/04/10 02:54:42;;;;;;;9.80;4.90;;;;;;;9.57;72.15;97087.67;104975;1266;100600;-74
2024/04/10 02:57:10;;;;;;;9.20;4.50;;;;;;;9.56;72.14;97093.11;105029;1256;99275;-74
2024/04/10 02:59:37;;;;;;;13.30;5.30;;;;;;;9.54;72.25;97097.43;105012;1254;99286;-74
2024/04/10 03:02:05;;;;;;;9.20;5.00;;;;;;;9.54;72.39;97100.77;105074;1257;99189;-75
2024/04/10 03:04:33;;;;;;;11.70;5.00;;;;;;;9.50;72.47;97103.93;104986;1266;99882;-74
2024/04/10 03:07:03;;;;;;;9.90;4.80;;;;;;;9.46;72.50;97106.70;104972;1258;104007;-75
2024/04/10 03:09:30;;;;;;;6.90;4.30;;;;;;;9.43;72.48;97112.66;104997;1260;101378;-75
2024/04/10 03:11:58;;;;;;;14.20;5.10;;;;;;;9.41;72.40;97116.71;105000;1264;99256;-75
2024/04/10 03:14:26;;;;;;;10.10;4.60;;;;;;;9.38;72.49;97119.42;105013;1266;100696;-75
2024/04/10 03:16:53;;;;;;;10.70;4.30;;;;;;;9.35;72.55;97123.64;105062;1267;99859;-74
2024/04/10 03:19:21;;;;;;;12.50;5.30;;;;;;;9.29;72.69;97130.45;104980;1260;99344;-74
2024/04/10 03:21:48;;;;;;;10.00;5.80;;;;;;;9.25;72.80;97135.30;104917;1256;99304;-75
2024/04/10 03:24:17;;;;;;;11.80;4.80;;;;;;;9.20;72.88;97137.73;104985;1267;99278;-75
2024/04/10 03:26:44;;;;;;;9.60;5.30;;;;;;;9.17;72.93;97143.06;104984;1257;100579;-74
2024/04/10 03:29:12;;;;;;;9.80;5.20;;;;;;;9.16;73.00;97151.69;105000;1257;99548;-74
2024/04/10 03:31:39;;;;;;;9.30;5.00;;;;;;;9.13;73.17;97154.91;105090;1254;99435;-79
2024/04/10 03:34:07;;;;;;;9.70;4.80;;;;;;;9.12;73.12;97158.56;104964;1260;99257;-79
2024/04/10 03:36:35;;;;;;;7.70;5.20;;;;;;;9.12;73.34;97163.66;104908;1268;100459;-78
2024/04/10 03:39:02;;;;;;;8.40;4.60;;;;;;;9.14;73.53;97163.53;104998;1275;99333;-79
2024/04/10 03:41:30;;;;;;;10.90;5.20;;;;;;;9.16;73.52;97166.69;104942;1257;99763;-79
2024/04/10 03:43:57;;;;;;;8.80;5.10;;;;;;;9.15;73.68;97174.31;105009;1260;99704;-79
2024/04/10 03:46:25;;;;;;;8.90;4.50;;;;;;;9.14;73.87;97181.31;105012;1257;99263;-79
2024/04/10 03:48:52;;;;;;;11.70;5.90;;;;;;;9.13;73.97;97184.50;105035;1266;99317;-79
2024/04/10 03:51:20;;;;;;;12.90;5.30;;;;;;;9.15;74.22;97192.08;105060;1266;99374;-79
2024/04/10 03:53:48;;;;;;;10.30;6.20;;;;;;;9.20;74.14;97196.54;105081;1256;99349;-79
2024/04/10 03:56:15;;;;;;;9.20;5.80;;;;;;;9.24;74.40;97199.86;104975;1256;104856;-78
2024/04/10 03:58:42;;;;;;;13.70;6.50;;;;;;;9.29;74.48;97206.70;104955;1257;99274;-78
2024/04/10 04:01:10;;;;;;;8.30;6.20;;;;;;;9.33;74.55;97206.65;105037;1266;102758;-82
2024/04/10 04:03:38;;;;;;;13.10;7.40;;;;;;;9.39;74.77;97207.40;104981;1274;99247;-82
2024/04/10 04:06:06;;;;;;;13.00;6.30;;;;;;;9.43;74.86;97206.60;105077;1267;99858;-82
2024/04/10 04:08:33;;;;;;;21.20;10.20;;;;;;;9.48;74.82;97211.70;105002;1267;104803;-80
2024/04/10 04:11:04;;;;;;;14.60;7.70;;;;;;;9.51;74.87;97207.17;105044;1254;100348;-80
2024/04/10 04:13:32;;;;;;;15.40;7.30;;;;;;;9.56;74.77;97215.58;105003;1257;100489;-79
2024/04/10 04:15:59;;;;;;;10.40;6.80;;;;;;;9.63;74.69;97216.66;105121;1266;100464;-81
2024/04/10 04:18:27;;;;;;;12.90;7.30;;;;;;;9.68;74.72;97219.13;104988;1257;99705;-81
2024/04/10 04:20:54;;;;;;;19.60;7.60;;;;;;;9.76;74.76;97225.99;104971;1260;99209;-80
2024/04/10 04:23:22;;;;;;;14.60;8.00;;;;;;;9.83;75.06;97225.19;104955;1257;102060;-81
2024/04/10 04:25:50;;;;;;;12.30;7.90;;;;;;;9.89;75.15;97231.08;105053;1257;99259;-80
2024/04/10 04:28:17;;;;;;;21.60;8.00;;;;;;;9.93;74.87;97233.34;105015;1261;99225;-80
2024/04/10 04:30:48;;;;;;;13.00;6.20;;;;;;;9.97;75.10;97245.91;105007;1254;99247;-82
2024/04/10 04:33:18;;;;;;;21.90;8.10;;;;;;;10.01;75.18;97245.65;104963;1256;103893;-82
2024/04/10 04:35:46;;;;;;;16.50;7.30;;;;;;;10.07;75.03;97249.27;105032;1259;100613;-81
2024/04/10 04:38:13;;;;;;;13.60;7.30;;;;;;;10.18;75.02;97255.23;104910;1267;99951;-82
2024/04/10 04:40:41;;;;;;;16.70;7.70;;;;;;;10.25;75.04;97260.16;105027;1257;99265;-81
2024/04/10 04:43:09;;;;;;;15.80;7.60;;;;;;;10.30;75.06;97263.51;105055;1257;99263;-81
2024/04/10 04:45:40;;;;;;;24.10;8.00;;;;;;;10.36;75.11;97266.52;104990;1257;106033;-79
2024/04/10 04:48:10;;;;;;;17.50;8.20;;;;;;;10.41;75.08;97271.69;105028;1258;100247;-79
2024/04/10 04:50:41;;;;;;;18.60;9.00;;;;;;;10.47;75.12;97274.20;104996;1269;100121;-80
2024/04/10 04:53:10;;;;;;;17.90;8.10;;;;;;;10.54;75.24;97277.41;105088;1254;99267;-79
2024/04/10 04:55:39;;;;;;;25.30;9.90;;;;;;;10.59;75.00;97279.88;105125;1254;99749;-79
2024/04/10 04:58:07;;;;;;;33.90;9.70;;;;;;;10.65;75.08;97283.30;105077;1257;104815;-79
2024/04/10 05:00:35;;;;;;;26.70;9.00;;;;;;;10.72;75.16;97288.17;105013;1260;101220;-79
2024/04/10 05:03:03;;;;;;;27.80;9.20;;;;;;;10.77;75.08;97293.16;104850;1270;99767;-79
2024/04/10 05:05:33;;;;;;;24.10;9.60;;;;;;;10.82;75.07;97296.59;104988;1267;99243;-79
2024/04/10 05:08:01;;;;;;;28.00;9.10;;;;;;;10.87;75.21;97300.22;105093;1256;99253;-75
2024/04/10 05:10:28;;;;;;;26.90;9.50;;;;;;;10.93;75.11;97303.72;104962;1257;104969;-75
2024/04/10 05:12:57;;;;;;;23.30;9.30;;;;;;;10.99;75.20;97305.34;105034;1258;100315;-75
2024/04/10 05:15:25;;;;;;;19.50;9.50;;;;;;;11.06;75.26;97307.77;105028;1257;99272;-74
2024/04/10 05:17:52;;;;;;;19.60;9.30;;;;;;;11.12;75.30;97307.17;104988;1266;99419;-75
2024/04/10 05:20:20;;;;;;;20.00;9.10;;;;;;;11.18;75.34;97316.25;105002;1254;99250;-74
2024/04/10 05:22:48;;;;;;;24.70;10.40;;;;;;;11.25;75.40;97320.61;105034;1257;104024;-74
2024/04/10 05:25:15;;;;;;;22.40;10.00;;;;;;;11.29;75.41;97316.30;105037;1256;99193;-74
2024/04/10 05:27:43;;;;;;;20.40;9.40;;;;;;;11.35;75.55;97319.80;105012;1257;99208;-74
2024/04/10 05:30:12;;;;;;;22.40;9.40;;;;;;;11.40;75.36;97326.70;104991;1254;99340;-74
2024/04/10 05:32:41;;;;;;;23.40;8.80;;;;;;;11.45;75.61;97329.12;105098;1255;99677;-75
2024/04/10 05:35:11;;;;;;;25.50;8.50;;;;;;;11.50;75.63;97333.45;105059;1268;105122;-74
2024/04/10 05:37:39;;;;;;;24.80;9.10;;;;;;;11.55;75.86;97342.33;105108;1266;100515;-78
2024/04/10 05:40:13;;;;;;;20.00;8.10;;;;;;;11.61;76.03;97346.39;105063;1267;100625;-78
2024/04/10 05:42:42;;;;;;;24.50;9.10;;;;;;;11.66;75.90;97351.98;105073;1254;99244;-77
2024/04/10 05:45:14;;;;;;;20.50;9.40;;;;;;;11.70;75.95;97348.70;105130;1254;99743;-81
2024/04/10 05:47:44;;;;;;;23.60;10.10;;;;;;;11.74;76.05;97349.10;105101;1257;104807;-79
2024/04/10 05:50:11;;;;;;;19.60;9.80;;;;;;;11.78;76.15;97350.16;104941;1257;101041;-79
2024/04/10 05:52:42;;;;;;;19.40;9.40;;;;;;;11.83;76.32;97350.73;105044;1257;100664;-78
2024/04/10 05:55:11;;;;;;;24.40;9.60;;;;;;;11.87;76.29;97357.20;106580;1253;99334;-79
2024/04/10 05:57:39;;;;;;;17.60;8.60;;;;;;;11.92;76.38;97356.55;105055;1256;99715;-79
2024/04/10 06:00:09;;;;;;;18.30;8.80;;;;;;;11.96;76.55;97359.95;105096;1257;104879;-79
2024/04/10 06:02:38;;;;;;;16.20;9.20;;;;;;;12.00;76.61;97366.70;105123;1257;101756;-79
2024/04/10 06:05:06;;;;;;;17.80;8.50;;;;;;;12.04;76.59;97374.39;105126;1258;99419;-79
2024/04/10 06:07:35;;;;;;;23.10;9.30;;;;;;;12.08;76.58;97381.29;104969;1257;99291;-79
2024/04/10 06:10:04;;;;;;;28.20;10.10;;;;;;;12.09;76.72;97384.27;104984;1253;100594;-79
2024/04/10 06:12:31;;;;;;;28.30;10.60;;;;;;;12.12;76.66;97386.66;105017;1256;104077;-79
2024/04/10 06:14:59;;;;;;;24.40;9.50;;;;;;;12.15;76.88;97390.36;105113;1270;100578;-79
2024/04/10 06:17:27;;;;;;;28.80;10.20;;;;;;;12.18;77.02;97397.41;105001;1258;100210;-79
2024/04/10 06:19:57;;;;;;;22.20;9.60;;;;;;;12.21;77.05;97398.11;105024;1267;99330;-79
2024/04/10 06:22:24;;;;;;;24.00;10.50;;;;;;;12.25;77.06;97396.08;105000;1257;99822;-78
2024/04/10 06:24:52;;;;;;;28.90;11.20;;;;;;;12.30;77.10;97399.45;104998;1269;105027;-79
2024/04/10 06:27:20;;;;;;;26.60;9.80;;;;;;;12.35;77.14;97401.11;105016;1266;100532;-79
2024/04/10 06:29:48;;;;;;;39.70;12.00;;;;;;;12.39;77.14;97407.20;104974;1257;99272;-79
2024/04/10 06:32:16;;;;;;;21.80;12.10;;;;;;;12.42;77.33;97409.81;105075;1267;99382;-81
2024/04/10 06:34:44;;;;;;;24.40;12.90;;;;;;;12.46;77.47;97410.34;105066;1257;100582;-82
2024/04/10 06:37:11;;;;;;;25.50;11.90;;;;;;;12.50;77.39;97410.85;105061;1257;99226;-82
2024/04/10 06:39:39;;;;;;;25.80;13.80;;;;;;;12.55;77.53;97415.50;105037;1266;99176;-81
2024/04/10 06:42:06;;;;;;;19.80;12.50;;;;;;;12.63;77.74;97422.80;105010;1264;99253;-78
2024/04/10 06:44:34;;;;;;;29.40;16.10;;;;;;;12.70;77.85;97427.98;105012;1257;99261;-82
2024/04/10 06:47:01;;;;;;;24.20;15.60;;;;;;;12.77;77.99;97430.57;105005;1253;99688;-81
2024/04/10 06:49:29;;;;;;;30.50;13.80;;;;;;;12.85;78.02;97430.06;104987;1268;105221;-82
2024/04/10 06:51:56;;;;;;;25.80;13.10;;;;;;;12.90;78.06;97429.85;104990;1258;101422;-81
2024/04/10 06:54:24;;;;;;;28.80;12.90;;;;;;;12.93;78.00;97430.59;104941;1258;100460;-82
2024/04/10 06:56:52;;;;;;;24.60;12.70;;;;;;;12.97;77.84;97432.39;104905;1258;99301;-82
2024/04/10 06:59:20;;;;;;;33.80;12.30;;;;;;;13.00;77.76;97438.27;104893;1257;99718;-82
2024/04/10 07:01:48;;;;;;;20.00;13.10;;;;;;;13.02;78.02;97444.56;104978;1257;105053;-79
2024/04/10 07:04:15;;;;;;;25.40;15.70;;;;;;;13.05;78.04;97452.98;104927;1258;101902;-79
2024/04/10 07:06:43;;;;;;;30.50;19.20;;;;;;;13.11;78.43;97458.42;104901;1257;99278;-78
2024/04/10 07:09:12;;;;;;;32.10;20.80;;;;;;;13.20;78.55;97457.42;104876;1257;99974;-78
2024/04/10 07:11:40;;;;;;;32.00;20.90;;;;;;;13.26;78.43;97467.98;104926;1257;99696;-78
2024/04/10 07:14:07;;;;;;;30.80;20.40;;;;;;;13.32;78.29;97474.00;104918;1256;99358;-78
2024/04/10 07:16:35;;;;;;;33.00;21.90;;;;;;;13.37;78.30;97485.91;105050;1254;99270;-80
2024/04/10 07:19:02;;;;;;;27.80;21.00;;;;;;;13.40;78.47;97491.84;104891;1254;99275;-81
2024/04/10 07:21:30;;;;;;;28.40;20.30;;;;;;;13.41;78.41;97497.08;104927;1260;99247;-81
2024/04/10 07:23:57;;;;;;;29.30;20.00;;;;;;;13.39;78.64;97494.85;104913;1269;99695;-81
2024/04/10 07:26:25;;;;;;;26.60;18.90;;;;;;;13.36;78.82;97502.41;104929;1257;99327;-82
2024/04/10 07:28:55;;;;;;;22.50;17.30;;;;;;;13.33;78.83;97511.17;104961;1257;99232;-81
2024/04/10 07:31:28;;;;;;;26.70;18.00;;;;;;;13.33;79.01;97512.64;104919;1269;99579;-82
2024/04/10 07:33:57;;;;;;;20.70;15.60;;;;;;;13.30;78.95;97514.42;104924;1256;99257;-81
2024/04/10 07:36:24;;;;;;;19.00;14.30;;;;;;;13.28;79.11;97514.54;104990;1264;100574;-82
2024/04/10 07:38:56;;;;;;;20.50;13.30;;;;;;;13.27;79.11;97520.44;104941;1276;103735;-81
2024/04/10 07:41:24;;;;;;;20.60;12.50;;;;;;;13.23;79.10;97519.05;104980;1254;100377;-82
2024/04/10 07:43:52;;;;;;;13.60;11.00;;;;;;;13.19;79.07;97525.31;104898;1267;99318;-82
2024/04/10 07:46:21;;;;;;;12.90;10.90;;;;;;;13.15;79.21;97527.65;105029;1266;99257;-80
2024/04/10 07:48:52;;;;;;;11.00;8.50;;;;;;;13.13;79.18;97531.04;104947;1257;100910;-80
2024/04/10 07:51:20;;;;;;;9.50;8.10;;;;;;;13.09;79.14;97541.60;104919;1267;103852;-79
2024/04/10 07:53:48;;;;;;;8.40;7.60;;;;;;;13.06;79.25;97541.30;104891;1257;101271;-80
2024/04/10 07:56:16;;;;;;;10.10;6.90;;;;;;;13.07;79.30;97546.59;104949;1254;100240;-80
2024/04/10 07:58:44;;;;;;;10.40;6.30;;;;;;;13.07;79.32;97551.25;104884;1261;99816;-80
2024/04/10 08:01:12;;;;;;;6.90;5.80;;;;;;;13.05;79.33;97553.80;104954;1257;99795;-80
2024/04/10 08:03:40;;;;;;;6.90;6.20;;;;;;;13.06;79.26;97555.05;104932;1257;105174;-80
2024/04/10 08:06:09;;;;;;;6.30;5.40;;;;;;;13.04;79.43;97561.41;105004;1258;100354;-80
2024/04/10 08:08:39;;;;;;;6.00;5.10;;;;;;;13.03;79.28;97569.90;105010;1267;99260;-80
2024/04/10 08:11:08;;;;;;;5.90;5.10;;;;;;;13.01;79.14;97577.96;104983;1259;99699;-79
2024/04/10 08:13:37;;;;;;;7.70;4.80;;;;;;;12.99;79.22;97586.52;105012;1271;99747;-80
2024/04/10 08:16:06;;;;;;;5.50;4.30;;;;;;;12.94;79.10;97586.67;104984;1261;104886;-80
2024/04/10 08:18:36;;;;;;;7.20;4.70;;;;;;;12.91;79.14;97594.06;104918;1259;100643;-80
2024/04/10 08:21:05;;;;;;;5.40;4.90;;;;;;;12.90;79.22;97593.54;104921;1256;100033;-80
2024/04/10 08:23:35;;;;;;;5.10;4.60;;;;;;;12.90;79.33;97602.36;104931;1254;99230;-80
2024/04/10 08:26:11;;;;;;;5.90;4.30;;;;;;;12.88;79.25;97606.70;105017;1257;99708;-80
2024/04/10 08:28:50;;;;;;;6.00;5.40;;;;;;;12.85;79.13;97609.07;104904;1257;104924;-80
2024/04/10 08:31:21;;;;;;;6.40;5.30;;;;;;;12.82;79.14;97617.01;105002;1256;100587;-82
2024/04/10 08:33:49;;;;;;;5.40;4.90;;;;;;;12.81;79.09;97623.35;105011;1254;99346;-81
2024/04/10 08:36:16;;;;;;;13.20;7.00;;;;;;;12.77;78.97;97630.48;104936;1257;99269;-82
2024/04/10 08:38:46;;;;;;;8.80;7.30;;;;;;;12.73;79.00;97634.99;104918;1256;99237;-81
2024/04/10 08:41:15;;;;;;;9.20;8.30;;;;;;;12.74;79.07;97635.58;105000;1257;104846;-83
2024/04/10 08:43:44;;;;;;;10.40;8.70;;;;;;;12.71;78.84;97647.38;104990;1255;108643;-82
2024/04/10 08:46:13;;;;;;;10.80;9.30;;;;;;;12.69;78.81;97658.36;104994;1267;99531;-81
2024/04/10 08:48:42;;;;;;;11.90;10.40;;;;;;;12.65;78.69;97665.02;104754;1259;99418;-81
2024/04/10 08:51:12;;;;;;;11.30;9.90;;;;;;;12.56;78.39;97665.81;104970;1253;99766;-81
2024/04/10 08:53:42;;;;;;;11.60;9.90;;;;;;;12.52;78.34;97669.05;105079;1257;105185;-81
2024/04/10 08:56:15;;;;;;;11.40;10.30;;;;;;;12.47;78.34;97675.27;104992;1256;101572;-75
2024/04/10 08:58:43;;;;;;;12.50;11.20;;;;;;;12.40;78.24;97679.27;105083;1254;100027;-75
2024/04/10 09:01:11;;;;;;;15.60;13.00;;;;;;;12.32;78.17;97682.48;105082;1254;99254;-75
2024/04/10 09:03:39;;;;;;;13.90;12.10;;;;;;;12.24;78.18;97686.46;104889;1253;99721;-75
2024/04/10 09:06:08;;;;;;;13.80;11.60;;;;;;;12.20;78.19;97692.14;105017;1266;105020;-75
2024/04/10 09:08:36;;;;;;;13.50;12.00;;;;;;;12.17;78.29;97697.13;105113;1257;100455;-74
2024/04/10 09:11:04;;;;;;;14.80;11.80;;;;;;;12.16;78.15;97704.98;105099;1258;99521;-75
2024/04/10 09:13:31;;;;;;;16.40;13.10;;;;;;;12.16;78.27;97709.88;105077;1257;99257;-75
2024/04/10 09:16:00;;;;;;;14.40;12.80;;;;;;;12.08;78.29;97715.64;105058;1252;100942;-75
2024/04/10 09:18:28;;;;;;;16.80;13.20;;;;;;;11.96;78.34;97718.09;105015;1267;103561;-75
2024/04/10 09:21:09;;;;;;;15.70;12.60;;;;;;;11.92;78.41;97722.56;105049;1256;108146;-74
2024/04/10 09:23:38;;;;;;;15.50;11.60;;;;;;;11.86;78.51;97732.75;105052;1257;100559;-75
2024/04/10 09:26:06;;;;;;;14.70;12.60;;;;;;;11.83;78.53;97736.63;104996;1256;100601;-75
2024/04/10 09:28:34;;;;;;;19.40;13.00;;;;;;;11.78;78.54;97737.61;105036;1257;100617;-74
2024/04/10 09:31:03;;;;;;;13.30;11.90;;;;;;;11.79;78.60;97742.97;105012;1256;105164;-74
2024/04/10 09:33:35;;;;;;;14.30;12.70;;;;;;;11.79;78.58;97750.47;105064;1257;101377;-74
2024/04/10 09:36:07;;;;;;;16.20;13.30;;;;;;;11.80;78.68;97754.67;105138;1257;99686;-74
2024/04/10 09:38:36;;;;;;;14.80;13.30;;;;;;;11.82;78.74;97755.88;105052;1256;99465;-74
2024/04/10 09:41:05;;;;;;;13.90;12.50;;;;;;;11.82;78.56;97764.98;105093;1256;101085;-74
2024/04/10 09:43:33;;;;;;;16.60;12.00;;;;;;;11.82;78.50;97768.86;105033;1257;103445;-74
2024/04/10 09:46:03;;;;;;;12.70;10.70;;;;;;;11.76;78.53;97770.05;105136;1254;101692;-82
2024/04/10 09:48:35;;;;;;;14.90;10.90;;;;;;;11.67;78.59;97776.57;105113;1256;100229;-81
2024/04/10 09:51:04;;;;;;;;;;;;;;;11.64;78.61;97777.16;105130;1269;100635;-82
2024/04/10 09:53:35;;;;;;;13.20;10.60;;;;;;;11.56;78.84;97787.73;105065;1257;99696;-80
2024/04/10 09:56:05;;;;;;;15.60;10.90;;;;;;;11.52;78.50;97790.04;105098;1257;104455;-80
2024/04/10 09:58:34;;;;;;;16.30;11.40;;;;;;;11.48;78.42;97792.30;105096;1254;101418;-80
2024/04/10 10:01:04;;;;;;;12.50;11.20;;;;;;;11.45;78.56;97797.59;105114;1257;100043;-75
2024/04/10 10:03:31;;;;;;;12.90;11.60;;;;;;;11.45;78.42;97791.10;105111;1256;99253;-75
2024/04/10 10:06:08;;;;;;;16.90;12.90;;;;;;;11.45;78.50;97794.13;105069;1269;99683;-74
2024/04/10 10:08:36;;;;;;;15.90;12.80;;;;;;;11.40;78.35;97801.85;105126;1256;104207;-75
2024/04/10 10:11:05;;;;;;;16.10;14.00;;;;;;;11.39;78.25;97808.51;104968;1257;101360;-74
2024/04/10 10:13:41;;;;;;;16.60;14.40;;;;;;;11.39;78.19;97812.62;105128;1257;99325;-74
2024/04/10 10:16:09;;;;;;;19.10;14.40;;;;;;;11.39;78.04;97815.16;105130;1256;100546;-74
2024/04/10 10:18:36;;;;;;;18.80;15.60;;;;;;;11.39;78.07;97814.04;105042;1254;99762;-75
2024/04/10 10:21:05;;;;;;;19.20;14.60;;;;;;;11.39;77.88;97819.98;104984;1256;99259;-74
2024/04/10 10:23:36;;;;;;;17.80;15.00;;;;;;;11.36;77.67;97831.42;105012;1254;101604;-74
2024/04/10 10:26:05;;;;;;;18.20;13.90;;;;;;;11.29;77.67;97836.69;105006;1257;100005;-74
2024/04/10 10:28:35;;;;;;;17.50;14.20;;;;;;;11.24;77.52;97837.23;105101;1254;100480;-75
2024/04/10 10:31:14;;;;;;;16.20;14.50;;;;;;;11.19;77.41;97841.70;105015;1256;99752;-81
2024/04/10 10:33:43;;;;;;;18.10;15.30;;;;;;;11.16;77.29;97848.09;105075;1270;105158;-81
2024/04/10 10:36:11;;;;;;;22.50;15.80;;;;;;;11.15;77.36;97851.45;105611;1253;100197;-81
2024/04/10 10:38:38;;;;;;;19.00;14.70;;;;;;;11.14;77.45;97860.73;105064;1254;99282;-81
2024/04/10 10:41:07;;;;;;;19.70;15.30;;;;;;;11.10;77.32;97862.64;105116;1256;99286;-81
2024/04/10 10:43:35;;;;;;;21.10;15.10;;;;;;;11.08;77.52;97865.09;105162;1267;99287;-82
2024/04/10 10:46:05;;;;;;;17.70;14.70;;;;;;;11.09;77.55;97869.20;105071;1258;104874;-81
2024/04/10 10:48:33;;;;;;;19.80;13.70;;;;;;;11.11;77.57;97872.11;105102;1254;101411;-81
2024/04/10 10:51:00;;;;;;;21.20;14.10;;;;;;;11.15;77.49;97871.45;105067;1257;100204;-82
2024/04/10 10:53:29;;;;;;;17.50;14.80;;;;;;;11.16;77.35;97875.70;105090;1258;99336;-81
2024/04/10 10:55:57;;;;;;;22.70;14.70;;;;;;;11.16;77.26;97879.57;105039;1257;99785;-82
2024/04/10 10:58:26;;;;;;;19.60;14.20;;;;;;;11.18;77.20;97887.23;105072;1257;104051;-81
2024/04/10 11:00:54;;;;;;;23.00;14.20;;;;;;;11.20;77.11;97888.98;105031;1257;100474;-80
2024/04/10 11:03:25;;;;;;;21.00;13.50;;;;;;;11.22;76.99;97892.73;104888;1256;181781;-80
2024/04/10 11:05:54;;;;;;;19.10;13.40;;;;;;;11.23;76.75;97894.27;105052;1257;99260;-81
2024/04/10 11:08:24;;;;;;;19.80;14.30;;;;;;;11.22;76.69;97896.13;105044;1253;99833;-81
2024/04/10 11:10:53;;;;;;;15.50;12.90;;;;;;;11.18;76.96;97898.06;104997;1260;105088;-80
2024/04/10 11:13:20;;;;;;;25.30;14.30;;;;;;;11.19;77.00;97895.75;105152;1257;100043;-79
2024/04/10 11:15:50;;;;;;;20.90;14.30;;;;;;;11.20;76.95;97895.84;105044;1254;100498;-80
2024/04/10 11:18:19;;;;;;;18.00;13.70;;;;;;;11.16;77.05;97899.94;105046;1257;99256;-80
2024/04/10 11:20:51;;;;;;;18.20;13.90;;;;;;;11.16;77.18;97896.94;104989;1256;100166;-80